Allensburg, Ohio
Current Conditions -  °F | °C
As of 3:54 AM on Sunday 26 Oct 2014 (Local Time) from KILN Reporting Station
Clear Clear  
Wind Chill: 52°   Ceiling: Unl
Heat Index: 52°   Visibility: 10mi
Dew Point: 38°   Wind: 8mph
Humidity: 59%   Direction: 300°WNW
Pressure: 29.94"   Gusts: NA
Location:  39.1546°N, 83.569°W
Report Text: KILN 260754Z AUTO 30007KT 10SM CLR 11/03 A2994 RMK AO2 SLP139 T01110033
Loading
Personal Weather Stations






























Interactive Weather Map
Tropical Storm Tracking
New forecast layout! Learn more

10-Day Weather Forecast

Advertisements
Track Severe Weather on mobile